Stewart, Virginia
Current Conditions -  °F | °C
As of 3:54 PM on Saturday 25 Oct 2014 (Local Time) from KRIC Reporting Station
Clear Clear  
Wind Chill: 71°   Ceiling: Unl
Heat Index: 71°   Visibility: 10mi
Dew Point: 37°   Wind: 12mph
Humidity: 29%   Direction: 230°SW
Pressure: 29.85"   Gusts: NA
Location:  37.5541°N, 77.4914°W
Report Text: KRIC 251954Z 23010KT 10SM CLR 22/03 A2985 RMK AO2 SLP111 T02170028
Loading
Personal Weather Stations






























Interactive Weather Map
Tropical Storm Tracking
New forecast layout! Learn more

10-Day Weather Forecast

Advertisements
Track Severe Weather on mobile